Pelagic Express — HOSN — position and weather

sailwx.info

Track history (hours):
 
Tides and Currents Weather Stations Pressure Air Temp Water Temp Dewpoint Dewpoint Depression Visibility Wind Speed Wind Dir Waves Ship Positions

Pelagic Express

Last reported at 2017-Dec-09 04:09 UTC. Time now 2017-Dec-14 04:04 UTC.
Position N 26°06' W 079°27'.

Length 81 m; draft 3.9 m.

Type: Cargo ship. MMSI: 372804000.

Date/timePositionNaut miles runAvg speedWind from/ knotsBaromVisibWave heightAir tempDewpointWater temp
2017-Dec-09 04:09N 26°06' W 079°27'2 9.7
2017-Dec-09 03:59N 26°06' W 079°28'5 9.4
2017-Dec-09 03:30N 26°05' W 079°33'4 9.0
2017-Dec-09 03:00N 26°06' W 079°38'4 8.9
2017-Dec-09 02:30N 26°06' W 079°43'4 8.9
2017-Dec-09 02:00N 26°06' W 079°48'5 9.3
2017-Dec-09 01:30N 26°05' W 079°53'5 9.3
2017-Dec-09 01:00N 26°05' W 079°58'5 9.1
2017-Dec-09 00:30N 26°05' W 080°03'3 6.3
2017-Dec-08 23:59N 26°05' W 080°07'0 0.0
2017-Dec-08 23:29N 26°05' W 080°07'0 0.0
2017-Dec-08 22:59N 26°05' W 080°07'0 0.0
2017-Dec-08 22:29N 26°05' W 080°07'0 0.0
2017-Dec-08 21:59N 26°05' W 080°07'0 0.0
2017-Dec-08 21:29N 26°05' W 080°07'0 0.0
2017-Dec-08 20:50N 26°05' W 080°07'0 0.0
2017-Dec-08 20:17N 26°05' W 080°07'0 0.0
2017-Dec-08 19:50N 26°05' W 080°07'0 0.0
2017-Dec-08 19:23N 26°05' W 080°07'0 0.0
2017-Dec-08 18:53N 26°05' W 080°07'0 0.0
2017-Dec-08 18:29N 26°05' W 080°07'0 0.0
2017-Dec-08 18:00N 26°05' W 080°07'0 0.0
2017-Dec-08 17:30N 26°05' W 080°07'0 0.0
2017-Dec-08 17:00N 26°05' W 080°07'0 0.0
2017-Dec-08 16:30N 26°05' W 080°07'0 0.0
2017-Dec-08 16:00N 26°05' W 080°07'0 0.0
2017-Dec-08 15:30N 26°05' W 080°07'0 0.0
2017-Dec-08 15:00N 26°05' W 080°07'0 0.0
2017-Dec-08 14:30N 26°05' W 080°07'0 0.0
2017-Dec-08 14:00N 26°05' W 080°07'0 0.0
2017-Dec-08 13:30N 26°05' W 080°07'0 0.0
2017-Dec-08 13:00N 26°05' W 080°07'0 0.0
2017-Dec-08 12:30N 26°05' W 080°07'0 0.0
2017-Dec-08 12:00N 26°05' W 080°07'3 5.9
2017-Dec-08 11:30N 26°05' W 080°04'1 1.2
2017-Dec-08 11:00N 26°05' W 080°04'3 6.8
2017-Dec-08 10:30N 26°02' W 080°03'4 7.3
2017-Dec-08 10:00N 25°58' W 080°01'4 7.8
2017-Dec-08 09:30N 25°55' W 079°59'4 7.9
2017-Dec-08 09:00N 25°51' W 079°58'5 9.2
2017-Dec-08 08:30N 25°46' W 079°57'5 9.2
2017-Dec-08 08:00N 25°42' W 079°55'5 9.2
2017-Dec-08 07:30N 25°38' W 079°54'5 9.6
2017-Dec-08 07:00N 25°33' W 079°52'  
2017-Dec-02 03:26N 26°06' W 079°34'4 8.8
2017-Dec-02 03:00N 26°06' W 079°38'4 8.8
2017-Dec-02 02:30N 26°05' W 079°43'4 8.7
2017-Dec-02 02:00N 26°05' W 079°48'4 9.0
2017-Dec-02 01:30N 26°05' W 079°53'4 9.0
2017-Dec-02 01:00N 26°05' W 079°58'5 9.4
2017-Dec-02 00:30N 26°05' W 080°03'4 7.6
2017-Dec-02 00:00N 26°05' W 080°07'0 0.0
2017-Dec-01 23:28N 26°05' W 080°07'0 0.0
2017-Dec-01 23:00N 26°05' W 080°07'0 0.0
2017-Dec-01 22:30N 26°05' W 080°07'0 0.0
2017-Dec-01 22:00N 26°05' W 080°07'0 0.0
2017-Dec-01 21:30N 26°05' W 080°07'0 0.0
2017-Dec-01 21:00N 26°05' W 080°07'0 0.0
2017-Dec-01 20:30N 26°05' W 080°07'0 0.0
2017-Dec-01 20:00N 26°05' W 080°07'0 0.0
2017-Dec-01 19:30N 26°05' W 080°07'0 0.0
2017-Dec-01 19:00N 26°05' W 080°07'0 0.0
2017-Dec-01 18:30N 26°05' W 080°07'0 0.0
2017-Dec-01 18:00N 26°05' W 080°07'0 0.0
2017-Dec-01 17:30N 26°05' W 080°07'0 0.0
2017-Dec-01 17:00N 26°05' W 080°07'0 0.0
2017-Dec-01 16:30N 26°05' W 080°07'0 0.0
2017-Dec-01 16:00N 26°05' W 080°07'0 0.0
2017-Dec-01 15:30N 26°05' W 080°07'0 0.0
2017-Dec-01 15:00N 26°05' W 080°07'0 0.0
2017-Dec-01 14:30N 26°05' W 080°07'0 0.0
2017-Dec-01 14:00N 26°05' W 080°07'0 0.0
2017-Dec-01 13:30N 26°05' W 080°07'0 0.0
2017-Dec-01 13:00N 26°05' W 080°07'0 0.2
2017-Dec-01 12:30N 26°05' W 080°07'3 5.1
2017-Dec-01 12:00N 26°05' W 080°04'2 3.8
2017-Dec-01 11:30N 26°03' W 080°05'4 7.4
2017-Dec-01 11:00N 26°03' W 080°00'4 7.2
2017-Dec-01 10:30N 26°04' W 079°56'4 7.6
2017-Dec-01 10:00N 26°04' W 079°52'5 9.4
2017-Dec-01 09:30N 26°05' W 079°47'5 9.7
2017-Dec-01 09:00N 26°05' W 079°42'5 9.7
2017-Dec-01 08:30N 26°05' W 079°36'  
Track history (hours):
 
Tides and Currents Weather Stations Pressure Air Temp Water Temp Dewpoint Dewpoint Depression Visibility Wind Speed Wind Dir Waves Ship Positions

Pelagic Express

Last reported at 2017-Dec-09 04:09 UTC. Time now 2017-Dec-14 04:04 UTC.
Position N 26°06' W 079°27'.

Length 81 m; draft 3.9 m.

Type: Cargo ship. MMSI: 372804000.

Date/timePositionNaut miles runAvg speedWind from/ knotsBaromVisibWave heightAir tempDewpointWater temp
2017-Dec-09 04:09N 26°06' W 079°27'2 9.7
2017-Dec-09 03:59N 26°06' W 079°28'5 9.4
2017-Dec-09 03:30N 26°05' W 079°33'4 9.0
2017-Dec-09 03:00N 26°06' W 079°38'4 8.9
2017-Dec-09 02:30N 26°06' W 079°43'4 8.9
2017-Dec-09 02:00N 26°06' W 079°48'5 9.3
2017-Dec-09 01:30N 26°05' W 079°53'5 9.3
2017-Dec-09 01:00N 26°05' W 079°58'5 9.1
2017-Dec-09 00:30N 26°05' W 080°03'3 6.3
2017-Dec-08 23:59N 26°05' W 080°07'0 0.0
2017-Dec-08 23:29N 26°05' W 080°07'0 0.0
2017-Dec-08 22:59N 26°05' W 080°07'0 0.0
2017-Dec-08 22:29N 26°05' W 080°07'0 0.0
2017-Dec-08 21:59N 26°05' W 080°07'0 0.0
2017-Dec-08 21:29N 26°05' W 080°07'0 0.0
2017-Dec-08 20:50N 26°05' W 080°07'0 0.0
2017-Dec-08 20:17N 26°05' W 080°07'0 0.0
2017-Dec-08 19:50N 26°05' W 080°07'0 0.0
2017-Dec-08 19:23N 26°05' W 080°07'0 0.0
2017-Dec-08 18:53N 26°05' W 080°07'0 0.0
2017-Dec-08 18:29N 26°05' W 080°07'0 0.0
2017-Dec-08 18:00N 26°05' W 080°07'0 0.0
2017-Dec-08 17:30N 26°05' W 080°07'0 0.0
2017-Dec-08 17:00N 26°05' W 080°07'0 0.0
2017-Dec-08 16:30N 26°05' W 080°07'0 0.0
2017-Dec-08 16:00N 26°05' W 080°07'0 0.0
2017-Dec-08 15:30N 26°05' W 080°07'0 0.0
2017-Dec-08 15:00N 26°05' W 080°07'0 0.0
2017-Dec-08 14:30N 26°05' W 080°07'0 0.0
2017-Dec-08 14:00N 26°05' W 080°07'0 0.0
2017-Dec-08 13:30N 26°05' W 080°07'0 0.0
2017-Dec-08 13:00N 26°05' W 080°07'0 0.0
2017-Dec-08 12:30N 26°05' W 080°07'0 0.0
2017-Dec-08 12:00N 26°05' W 080°07'3 5.9
2017-Dec-08 11:30N 26°05' W 080°04'1 1.2
2017-Dec-08 11:00N 26°05' W 080°04'3 6.8
2017-Dec-08 10:30N 26°02' W 080°03'4 7.3
2017-Dec-08 10:00N 25°58' W 080°01'4 7.8
2017-Dec-08 09:30N 25°55' W 079°59'4 7.9
2017-Dec-08 09:00N 25°51' W 079°58'5 9.2
2017-Dec-08 08:30N 25°46' W 079°57'5 9.2
2017-Dec-08 08:00N 25°42' W 079°55'5 9.2
2017-Dec-08 07:30N 25°38' W 079°54'5 9.6
2017-Dec-08 07:00N 25°33' W 079°52'  
2017-Dec-02 03:26N 26°06' W 079°34'4 8.8
2017-Dec-02 03:00N 26°06' W 079°38'4 8.8
2017-Dec-02 02:30N 26°05' W 079°43'4 8.7
2017-Dec-02 02:00N 26°05' W 079°48'4 9.0
2017-Dec-02 01:30N 26°05' W 079°53'4 9.0
2017-Dec-02 01:00N 26°05' W 079°58'5 9.4
2017-Dec-02 00:30N 26°05' W 080°03'4 7.6
2017-Dec-02 00:00N 26°05' W 080°07'0 0.0
2017-Dec-01 23:28N 26°05' W 080°07'0 0.0
2017-Dec-01 23:00N 26°05' W 080°07'0 0.0
2017-Dec-01 22:30N 26°05' W 080°07'0 0.0
2017-Dec-01 22:00N 26°05' W 080°07'0 0.0
2017-Dec-01 21:30N 26°05' W 080°07'0 0.0
2017-Dec-01 21:00N 26°05' W 080°07'0 0.0
2017-Dec-01 20:30N 26°05' W 080°07'0 0.0
2017-Dec-01 20:00N 26°05' W 080°07'0 0.0
2017-Dec-01 19:30N 26°05' W 080°07'0 0.0
2017-Dec-01 19:00N 26°05' W 080°07'0 0.0
2017-Dec-01 18:30N 26°05' W 080°07'0 0.0
2017-Dec-01 18:00N 26°05' W 080°07'0 0.0
2017-Dec-01 17:30N 26°05' W 080°07'0 0.0
2017-Dec-01 17:00N 26°05' W 080°07'0 0.0
2017-Dec-01 16:30N 26°05' W 080°07'0 0.0
2017-Dec-01 16:00N 26°05' W 080°07'0 0.0
2017-Dec-01 15:30N 26°05' W 080°07'0 0.0
2017-Dec-01 15:00N 26°05' W 080°07'0 0.0
2017-Dec-01 14:30N 26°05' W 080°07'0 0.0
2017-Dec-01 14:00N 26°05' W 080°07'0 0.0
2017-Dec-01 13:30N 26°05' W 080°07'0 0.0
2017-Dec-01 13:00N 26°05' W 080°07'0 0.2
2017-Dec-01 12:30N 26°05' W 080°07'3 5.1
2017-Dec-01 12:00N 26°05' W 080°04'2 3.8
2017-Dec-01 11:30N 26°03' W 080°05'4 7.4
2017-Dec-01 11:00N 26°03' W 080°00'4 7.2
2017-Dec-01 10:30N 26°04' W 079°56'4 7.6
2017-Dec-01 10:00N 26°04' W 079°52'5 9.4
2017-Dec-01 09:30N 26°05' W 079°47'5 9.7
2017-Dec-01 09:00N 26°05' W 079°42'5 9.7
2017-Dec-01 08:30N 26°05' W 079°36'  

Dump ship's entire track history